Schedule Details

Flight Number: CPX792
Departure: Auckland International Airport (NZAA) at N/A
Arrival: Kingsford Smith International Airport (YSSY) at N/A
Route: MADEP N774 MARLN


Current Weather Information
NZAA 180630Z AUTO 22012KT 9999 NCD 20/13 Q1014 BECMG FM0700 VRB02KT
YSSY 180630Z 03025KT CAVOK 28/18 Q1004 NOSIG

Route Map